Terminal Aerodrome Forecast
Issued by NWS Sterling, VA

Home | Current Version | Previous Version | Text Only | Print | Product List | Glossary On
Versions: 1 2 3 4 5 6 7 8 9 10 11 12 13 14 15 16 17 18 19 20 21 22 23 24 25 26 27
000
FTUS41 KLWX 202341
TAFBWI
TAF
KBWI 202341Z 2100/2206 13003KT P6SM OVC013
     FM210100 13003KT 5SM BR OVC008
     FM210400 00000KT 3SM -DZ BR SCT003 OVC008
     FM210700 00000KT 2SM -DZ BR OVC003
     FM211400 VRB03KT 4SM BR SCT003 OVC008
     FM211700 17005KT P6SM SCT008 OVC015
     FM212300 VRB03KT P6SM SCT006 OVC010=

USA.gov is the U.S. government's official web portal to all federal, state and local government web resources and services.